CPX117 Details

Departure: Daniel K Inouye International Airport (PHNL)
Arrival: Los Angeles International Airport (KLAX) at N/A
Route: MKK4 CLUTS R465 CIVIT R585 AUDIA SNAXX RYDRR2
Notes:


Current Weather Information
PHNL 191553Z 00000KT 10SM FEW025 24/19 A2996 RMK AO2 SLP144 T02440194
KLAX 191553Z 13005KT 7SM OVC017 21/16 A2997 RMK AO2 SLP147 T02060156